Lula, MS

11:21 AM CST on March 02, 2015 (GMT -0600)
Olive Branch | Change Station
CLOSE
Current Station
Airport
Location: Olive Branch,
Elevation: 400 ft
Nearby Weather Stations
Active Advisory: Winter Storm Watch

Elev 400 ft 34.98 °N, 89.79 °W | Updated 31 minutes ago

Mostly Cloudy
Mostly Cloudy
36 °F
Feels Like 28 °F
N
12
Wind Variable Wind from ENE

Today
High -- | Low -- °F
--% Chance of Precip.
Yesterday
High -- | Low -- °F
Precip. -- in
6:29 AM 5:58 PM
Waxing Gibbous, 92% visible
Pressure 30.43 in
Visibility 7.0 miles
Clouds Mostly Cloudy 2200 ft
Overcast 11000 ft
Windchill 28 °F
Dew Point 34 °F
Humidity 93%
Rainfall 0.00 in
Snow Depth Not available.
UV 2 out of 12
Pollen 5.80 out of 12
Air Quality Not available.
Flu Activity Not available.
METAR KOLV 021650Z 07010KT 7SM BKN022 OVC110 02/01 A3043

More Conditions Fewer Conditions

Pressure 30.43 in
Visibility 7.0 miles
Clouds Mostly Cloudy 2200 ft
Overcast 11000 ft
Windchill 28 °F
Dew Point 34 °F
Humidity 93%
Rainfall 0.00 in
Snow Depth Not available.
UV 2 out of 12
Pollen 5.80 out of 12
Air Quality Not available.
Flu Activity Not available.
METAR KOLV 021650Z 07010KT 7SM BKN022 OVC110 02/01 A3043

More Conditions Fewer Conditions

10-Day Weather Forecast

Almanac

Astronomy

Mar. 02, 2015 Rise Set
Actual Time
Civil Twilight
Nautical Twilight
Astronomical Twilight
Moon
Length of Visible Light
Length of Day
Tomorrow will be .
, % of the Moon is Illuminated

Today's Extremes

State Highs State Lows

Community

WunderPhotos

Upload Photos

1,801,866 photos uploaded!

WunderBlogs® & News

Nearby

Air Quality

  Air Quality AQ Index Pollutant
Not available.

Snow Depth

Station Depth Elevation

Earthquake Activity

City Distance Mag. Time & Date
Minimum magnitude displayed is 2.5.

Coastal Water Temperatures

Place Temperature

Nearby Weather Stations

Winter Storm Watch
Statement as of 3:46 AM CST on March 02, 2015

... Winter Storm Watch in effect from Wednesday afternoon through
late Wednesday night...

The National Weather Service in Memphis has issued a Winter Storm
Watch... which is in effect from Wednesday afternoon through late
Wednesday night.

* Snow/sleet/ice accumulations... significant accumulations of
snow... sleet and ice are likely.

* Timing... 12 PM CST Wednesday to 6 am CST Thursday.

* Impacts... travel will likely become hazardous.

Precautionary/preparedness actions...

A Winter Storm Watch means there is a potential for significant
snow... sleet... or ice accumulations that may impact travel.
Continue to monitor the latest forecasts.



Sjm